Time;durP1;ratioP1;P1;durP2;ratioP2;P2;SDS_P1;SDS_P2;PMS_P1;PMS_P2;Temp;Humidity;BMP_temperature;BMP_pressure;BME280_temperature;BME280_humidity;BME280_pressure;Samples;Min_cycle;Max_cycle;Signal;HPM_P1;HPM_P2
2024/01/12 00:00:21;;;;;;;17.00;10.03;;;;;;;-1.68;78.20;96752.94;4891142;29;20200;-65
2024/01/12 00:02:48;;;;;;;16.83;8.93;;;;;;;-1.67;77.80;96754.59;4891287;29;20779;-64
2024/01/12 00:05:15;;;;;;;17.30;9.37;;;;;;;-1.60;77.05;96759.66;4890863;29;20228;-64
2024/01/12 00:07:44;;;;;;;16.37;9.53;;;;;;;-1.59;76.46;96756.28;4891510;29;20205;-65
2024/01/12 00:10:11;;;;;;;16.63;8.93;;;;;;;-1.42;76.37;96759.63;4889618;29;20213;-65
2024/01/12 00:12:38;;;;;;;17.50;9.83;;;;;;;-1.36;76.66;96757.06;4891362;29;20198;-65
2024/01/12 00:15:06;;;;;;;19.70;11.53;;;;;;;-1.14;76.22;96768.78;4890733;29;20242;-65
2024/01/12 00:17:33;;;;;;;23.77;11.33;;;;;;;-1.02;75.16;96761.09;4890979;29;20241;-66
2024/01/12 00:20:02;;;;;;;20.60;10.90;;;;;;;-0.94;74.68;96765.31;4890986;29;20257;-64
2024/01/12 00:22:30;;;;;;;19.93;10.70;;;;;;;-1.03;74.33;96760.25;4890698;29;20293;-64
2024/01/12 00:24:57;;;;;;;18.57;10.67;;;;;;;-0.97;74.45;96772.09;4891115;29;20203;-64
2024/01/12 00:27:24;;;;;;;22.00;10.80;;;;;;;-1.17;74.29;96700.22;4890331;29;20265;-65
2024/01/12 00:29:51;;;;;;;15.47;9.40;;;;;;;-1.11;74.44;96750.97;4890881;29;20201;-64
2024/01/12 00:32:18;;;;;;;19.50;10.47;;;;;;;-1.20;74.24;96756.97;4890667;29;20205;-63
2024/01/12 00:34:45;;;;;;;18.80;10.33;;;;;;;-1.23;74.69;96761.22;4890711;29;20203;-62
2024/01/12 00:37:13;;;;;;;19.87;11.67;;;;;;;-1.33;75.04;96759.56;4890499;29;20602;-62
2024/01/12 00:39:40;;;;;;;23.47;11.60;;;;;;;-1.29;75.21;96753.63;4890320;29;20233;-63
2024/01/12 00:42:08;;;;;;;20.60;11.57;;;;;;;-1.12;73.87;96762.00;4890999;29;20682;-63
2024/01/12 00:44:35;;;;;;;21.47;11.77;;;;;;;-1.29;74.63;96746.00;4890393;29;20640;-63
2024/01/12 00:47:02;;;;;;;19.87;11.33;;;;;;;-1.59;75.82;96757.13;4890836;29;20630;-64
2024/01/12 00:49:29;;;;;;;20.97;11.37;;;;;;;-1.76;76.35;96753.81;4890606;29;20774;-64
2024/01/12 00:51:56;;;;;;;25.70;13.30;;;;;;;-1.71;77.91;96741.97;4890792;29;20230;-64
2024/01/12 00:54:26;;;;;;;23.53;12.00;;;;;;;-1.44;76.75;96766.41;4890846;29;20230;-64
2024/01/12 00:56:54;;;;;;;21.17;12.30;;;;;;;-1.32;76.44;96759.53;4890377;29;20280;-62
2024/01/12 00:59:22;;;;;;;19.97;11.20;;;;;;;-1.51;75.72;96729.19;4890823;29;20206;-62
2024/01/12 01:01:50;;;;;;;19.43;11.37;;;;;;;-1.39;75.69;96731.66;4890105;29;20197;-62
2024/01/12 01:04:19;;;;;;;27.93;13.63;;;;;;;-1.46;75.06;96747.78;4890641;29;20199;-63
2024/01/12 01:06:46;;;;;;;27.47;13.97;;;;;;;-1.56;75.40;96753.72;4892432;29;20289;-64
2024/01/12 01:09:13;;;;;;;21.17;11.77;;;;;;;-1.72;76.60;96738.56;4894065;29;20699;-64
2024/01/12 01:11:40;;;;;;;25.80;13.93;;;;;;;-1.52;75.11;96751.19;4894096;29;20202;-62
2024/01/12 01:14:08;;;;;;;20.87;11.20;;;;;;;-1.83;75.84;96749.56;4893960;29;20212;-63
2024/01/12 01:16:35;;;;;;;16.77;9.80;;;;;;;-1.58;76.24;96747.81;4894088;29;20241;-62
2024/01/12 01:19:02;;;;;;;25.60;13.63;;;;;;;-1.63;75.96;96744.47;4893697;29;20267;-63
2024/01/12 01:21:29;;;;;;;25.90;12.63;;;;;;;-1.78;76.01;96730.97;4894408;29;20579;-63
2024/01/12 01:23:57;;;;;;;23.63;11.40;;;;;;;-1.72;75.47;96727.56;4893615;29;20595;-62
2024/01/12 01:26:24;;;;;;;20.87;11.80;;;;;;;-1.78;75.38;96725.06;4893496;29;20237;-64
2024/01/12 01:28:51;;;;;;;27.17;13.80;;;;;;;-1.90;76.28;96725.94;4893859;29;20210;-63
2024/01/12 01:31:18;;;;;;;23.73;11.47;;;;;;;-1.93;77.02;96718.31;4893584;29;20212;-63
2024/01/12 01:33:45;;;;;;;21.97;11.17;;;;;;;-1.86;76.01;96699.72;4894291;29;20211;-63
2024/01/12 01:36:13;;;;;;;20.47;11.33;;;;;;;-1.75;76.32;96704.72;4893228;29;20202;-64
2024/01/12 01:38:40;;;;;;;21.63;10.30;;;;;;;-1.84;77.64;96695.47;4892197;29;20244;-63
2024/01/12 01:41:07;;;;;;;17.93;9.87;;;;;;;-1.90;77.29;96698.03;4891838;29;20220;-63
2024/01/12 01:43:34;;;;;;;20.07;10.03;;;;;;;-1.79;75.99;96697.97;4893607;29;20205;-63
2024/01/12 01:46:02;;;;;;;15.07;8.53;;;;;;;-1.66;76.25;96695.41;4893315;29;20210;-63
2024/01/12 01:48:29;;;;;;;13.97;9.00;;;;;;;-1.60;75.78;96704.66;4893383;29;20210;-63
2024/01/12 01:50:56;;;;;;;14.83;9.83;;;;;;;-1.60;75.87;96706.34;4893740;29;20209;-64
2024/01/12 01:53:24;;;;;;;14.40;8.77;;;;;;;-1.64;75.71;96680.16;4893280;29;20248;-64
2024/01/12 01:55:51;;;;;;;17.10;9.67;;;;;;;-1.71;74.97;96661.56;4893810;29;20213;-63
2024/01/12 01:58:19;;;;;;;15.20;8.97;;;;;;;-1.84;75.74;96689.53;4893040;29;20238;-63
2024/01/12 02:00:47;;;;;;;20.60;11.97;;;;;;;-1.97;76.41;96688.75;4893132;29;20210;-65
2024/01/12 02:03:15;;;;;;;22.00;10.50;;;;;;;-2.11;77.20;96674.41;4893285;29;20218;-64
2024/01/12 02:05:45;;;;;;;20.00;9.47;;;;;;;-2.16;77.66;96655.81;4893549;29;20295;-64
2024/01/12 02:08:14;;;;;;;17.70;8.97;;;;;;;-2.29;77.74;96667.69;4893297;29;20703;-64
2024/01/12 02:10:42;;;;;;;18.97;9.90;;;;;;;-2.25;77.96;96666.00;4892940;29;20586;-64
2024/01/12 02:13:09;;;;;;;16.33;9.73;;;;;;;-2.29;77.80;96674.47;4893173;29;20262;-64
2024/01/12 02:15:36;;;;;;;18.13;9.83;;;;;;;-2.31;77.70;96673.63;4892719;29;20241;-64
2024/01/12 02:18:04;;;;;;;16.03;9.27;;;;;;;-2.22;77.67;96678.66;4890530;29;20231;-64
2024/01/12 02:20:31;;;;;;;14.47;8.27;;;;;;;-2.59;77.71;96665.19;4891440;29;20211;-64
2024/01/12 02:22:58;;;;;;;18.63;10.17;;;;;;;-2.70;78.78;96661.84;4891391;29;20690;-64
2024/01/12 02:25:25;;;;;;;15.80;7.77;;;;;;;-2.96;79.39;96666.91;4893180;29;20214;-63
2024/01/12 02:27:53;;;;;;;14.30;7.63;;;;;;;-2.76;79.42;96671.97;4892434;29;20211;-65
2024/01/12 02:30:20;;;;;;;17.20;8.43;;;;;;;-2.75;79.90;96659.31;4893193;29;20207;-64
2024/01/12 02:32:47;;;;;;;14.23;7.77;;;;;;;-2.88;80.29;96661.81;4891141;29;20688;-64
2024/01/12 02:35:15;;;;;;;15.83;8.07;;;;;;;-3.24;80.82;96598.53;4892397;29;20223;-64
2024/01/12 02:37:42;;;;;;;15.83;7.67;;;;;;;-2.78;80.41;96666.06;4892341;29;20239;-63
2024/01/12 02:40:09;;;;;;;17.80;8.13;;;;;;;-2.74;80.17;96676.19;4892414;29;20208;-63
2024/01/12 02:42:36;;;;;;;11.63;6.90;;;;;;;-2.73;80.53;96666.91;4892439;29;20205;-63
2024/01/12 02:45:04;;;;;;;15.83;7.37;;;;;;;-2.70;80.16;96677.06;4892122;29;20216;-64
2024/01/12 02:47:31;;;;;;;12.87;6.93;;;;;;;-2.64;80.30;96677.03;4892688;29;20313;-63
2024/01/12 02:49:58;;;;;;;14.33;7.60;;;;;;;-2.61;80.10;96679.56;4891711;29;20216;-64
2024/01/12 02:52:25;;;;;;;16.80;8.67;;;;;;;-2.42;80.02;96670.25;4890869;29;20645;-64
2024/01/12 02:54:52;;;;;;;13.13;6.70;;;;;;;-2.41;79.29;96647.41;4892160;29;20201;-64
2024/01/12 02:57:19;;;;;;;14.60;7.50;;;;;;;-2.06;78.82;96673.53;4892181;29;20321;-64
2024/01/12 02:59:47;;;;;;;14.00;7.07;;;;;;;-1.93;78.65;96671.81;4892138;29;20703;-63
2024/01/12 03:02:14;;;;;;;12.57;6.93;;;;;;;-1.90;78.26;96654.91;4891837;29;20296;-64
2024/01/12 03:04:41;;;;;;;10.97;7.20;;;;;;;-1.72;76.85;96662.44;4892321;29;20204;-64
2024/01/12 03:07:08;;;;;;;11.27;6.70;;;;;;;-1.73;77.10;96670.03;4891526;29;20301;-63
2024/01/12 03:09:36;;;;;;;10.37;7.10;;;;;;;-1.76;76.42;96664.97;4891982;29;20235;-64
2024/01/12 03:12:03;;;;;;;12.47;7.40;;;;;;;-1.75;77.93;96664.97;4890467;29;20215;-64
2024/01/12 03:14:30;;;;;;;12.23;7.77;;;;;;;-1.57;76.92;96680.97;4891611;29;20307;-63
2024/01/12 03:16:57;;;;;;;16.37;7.27;;;;;;;-1.44;76.15;96669.91;4891715;29;20281;-64
2024/01/12 03:19:25;;;;;;;13.57;7.40;;;;;;;-1.43;75.37;96672.44;4891307;29;21018;-64
2024/01/12 03:21:52;;;;;;;13.47;7.50;;;;;;;-1.45;76.55;96678.38;4892242;29;20315;-65
2024/01/12 03:24:19;;;;;;;11.13;7.23;;;;;;;-1.44;75.10;96685.97;4891715;29;20520;-65
2024/01/12 03:26:46;;;;;;;15.53;7.60;;;;;;;-1.95;75.76;96620.22;4892199;29;20387;-64
2024/01/12 03:29:14;;;;;;;12.00;7.30;;;;;;;-1.67;75.78;96681.00;4891703;29;20209;-65
2024/01/12 03:31:42;;;;;;;12.80;7.33;;;;;;;-1.70;76.02;96678.50;4891280;29;20206;-65
2024/01/12 03:34:09;;;;;;;14.87;8.97;;;;;;;-2.11;77.13;96675.25;4891346;29;20289;-64
2024/01/12 03:36:36;;;;;;;17.03;9.10;;;;;;;-2.17;77.30;96675.28;4891563;29;20216;-64
2024/01/12 03:39:04;;;;;;;15.30;8.17;;;;;;;-2.14;77.25;96680.31;4891591;29;20236;-63
2024/01/12 03:41:31;;;;;;;16.40;9.23;;;;;;;-2.15;77.68;96680.34;4874068;29;20256;-63
2024/01/12 03:43:58;;;;;;;18.63;8.97;;;;;;;-2.22;77.68;96682.03;4891354;29;20563;-63
2024/01/12 03:46:25;;;;;;;13.10;7.87;;;;;;;-2.28;77.84;96676.97;4891417;29;20208;-64
2024/01/12 03:48:52;;;;;;;16.30;8.40;;;;;;;-2.05;77.75;96672.69;4890907;29;20215;-63
2024/01/12 03:51:20;;;;;;;14.40;8.33;;;;;;;-1.96;76.94;96682.81;4891207;29;20631;-63
2024/01/12 03:53:47;;;;;;;14.27;9.17;;;;;;;-2.08;76.75;96675.22;4889622;29;20212;-64
2024/01/12 03:56:14;;;;;;;13.10;7.13;;;;;;;-2.01;76.16;96678.59;4891333;29;20219;-64
2024/01/12 03:58:41;;;;;;;23.63;8.50;;;;;;;-2.03;76.57;96677.75;4889396;29;20544;-63
2024/01/12 04:01:08;;;;;;;16.40;8.03;;;;;;;-1.92;76.40;96671.81;4891349;29;20203;-63
2024/01/12 04:03:35;;;;;;;17.10;9.53;;;;;;;-2.07;76.84;96669.31;4890808;29;20202;-64
2024/01/12 04:06:10;;;;;;;18.40;9.53;;;;;;;-1.82;76.73;96675.16;4890958;29;20206;-63
2024/01/12 04:08:38;;;;;;;15.40;8.47;;;;;;;-1.92;77.09;96666.75;4890974;29;20206;-64
2024/01/12 04:11:05;;;;;;;13.87;8.90;;;;;;;-1.87;75.93;96657.41;4890467;29;20214;-63
2024/01/12 04:13:33;;;;;;;22.03;10.03;;;;;;;-1.84;76.45;96684.47;4891195;29;20199;-63
2024/01/12 04:16:00;;;;;;;20.70;10.37;;;;;;;-1.91;76.67;96687.88;4889063;29;20971;-64
2024/01/12 04:18:27;;;;;;;23.00;11.13;;;;;;;-1.71;76.01;96686.94;4890913;29;20237;-63
2024/01/12 04:20:55;;;;;;;18.97;9.97;;;;;;;-1.74;76.31;96676.81;4890581;29;20562;-63
2024/01/12 04:23:22;;;;;;;20.57;10.87;;;;;;;-1.57;74.98;96693.66;4890828;29;20210;-63
2024/01/12 04:25:49;;;;;;;15.97;8.87;;;;;;;-1.94;76.47;96691.25;4890815;29;20240;-63
2024/01/12 04:28:16;;;;;;;18.87;9.90;;;;;;;-1.73;76.38;96708.09;4890368;29;20242;-64
2024/01/12 04:30:43;;;;;;;18.70;9.03;;;;;;;-1.67;76.56;96697.94;4890737;29;20300;-64
2024/01/12 04:33:10;;;;;;;21.57;10.73;;;;;;;-1.67;75.52;96695.41;4890072;29;20748;-64
2024/01/12 04:35:37;;;;;;;16.23;8.93;;;;;;;-1.67;76.21;96703.84;4887998;29;20217;-64
2024/01/12 04:38:04;;;;;;;16.83;9.27;;;;;;;-1.45;75.79;96704.63;4889308;29;20236;-64
2024/01/12 04:40:31;;;;;;;18.80;10.60;;;;;;;-1.76;76.48;96703.06;4872367;29;20329;-64
2024/01/12 04:42:59;;;;;;;16.83;9.40;;;;;;;-1.81;76.95;96719.97;4875477;29;20202;-65
2024/01/12 04:45:26;;;;;;;16.47;10.40;;;;;;;-2.03;78.32;96709.06;4877868;29;20597;-64
2024/01/12 04:47:53;;;;;;;19.60;10.47;;;;;;;-2.05;77.94;96689.59;4885590;29;20202;-64
2024/01/12 04:50:20;;;;;;;23.00;12.60;;;;;;;-2.25;78.63;96714.16;4883723;29;20210;-63
2024/01/12 04:52:49;;;;;;;21.97;11.47;;;;;;;-1.86;78.23;96716.63;4883964;29;20209;-63
2024/01/12 04:55:16;;;;;;;22.10;12.27;;;;;;;-1.75;77.47;96719.94;4884867;29;20215;-65
2024/01/12 04:57:44;;;;;;;22.13;11.73;;;;;;;-1.68;77.00;96714.88;4884149;29;20232;-63
2024/01/12 05:00:12;;;;;;;23.30;12.67;;;;;;;-1.48;76.98;96719.03;4882614;29;20490;-63
2024/01/12 05:02:40;;;;;;;24.67;14.23;;;;;;;-1.66;76.77;96692.00;4887066;29;20208;-64
2024/01/12 05:05:08;;;;;;;22.63;11.87;;;;;;;-1.39;75.72;96708.81;4883195;29;20207;-63
2024/01/12 05:07:35;;;;;;;19.07;11.00;;;;;;;-1.59;76.21;96715.69;4881374;29;20619;-63
2024/01/12 05:10:04;;;;;;;20.27;11.70;;;;;;;-1.58;77.05;96722.44;4879782;29;20200;-64
2024/01/12 05:12:31;;;;;;;24.63;12.63;;;;;;;-1.37;76.38;96722.34;4873565;29;20694;-63
2024/01/12 05:14:59;;;;;;;20.20;12.57;;;;;;;-1.47;76.00;96726.63;4873676;29;20523;-64
2024/01/12 05:17:26;;;;;;;23.27;12.10;;;;;;;-1.19;75.92;96740.03;4875193;29;20198;-63
2024/01/12 05:19:53;;;;;;;25.47;12.83;;;;;;;-1.25;76.03;96737.50;4874797;29;20222;-63
2024/01/12 05:22:21;;;;;;;24.30;12.67;;;;;;;-1.70;76.54;96744.47;4875532;29;20203;-63
2024/01/12 05:24:48;;;;;;;20.37;12.43;;;;;;;-1.87;75.70;96751.28;4875106;29;20571;-64
2024/01/12 05:27:55;;;;;;;21.50;12.70;;;;;;;-1.99;76.04;96750.47;4875378;29;20683;-64
2024/01/12 05:30:36;;;;;;;23.63;12.23;;;;;;;-2.75;78.51;96759.78;4874019;29;20342;-63
2024/01/12 05:33:04;;;;;;;23.20;11.27;;;;;;;-2.80;79.82;96766.53;4874830;29;20594;-64
2024/01/12 05:35:31;;;;;;;16.73;10.57;;;;;;;-2.97;78.98;96756.41;4874728;29;20763;-64
2024/01/12 05:37:58;;;;;;;26.20;14.30;;;;;;;-2.82;80.01;96758.09;4874580;29;20642;-64
2024/01/12 05:40:25;;;;;;;17.20;10.03;;;;;;;-3.24;81.25;96761.41;4875327;29;20192;-63
2024/01/12 05:42:52;;;;;;;17.13;9.87;;;;;;;-2.98;80.89;96766.50;4874656;29;20229;-64
2024/01/12 05:45:19;;;;;;;23.77;13.07;;;;;;;-2.91;80.35;96758.94;4874808;29;20263;-64
2024/01/12 05:47:46;;;;;;;17.43;11.00;;;;;;;-2.77;80.13;96777.53;4874460;29;20947;-64
2024/01/12 05:50:13;;;;;;;22.40;12.33;;;;;;;-2.44;79.38;96784.31;4874117;29;20213;-64
2024/01/12 05:52:41;;;;;;;17.27;10.93;;;;;;;-2.42;79.61;96780.09;4874221;29;20195;-64
2024/01/12 05:55:08;;;;;;;17.47;9.60;;;;;;;-2.42;79.19;96787.69;4872737;29;20184;-63
2024/01/12 05:57:35;;;;;;;21.03;11.47;;;;;;;-2.39;79.49;96800.34;4874981;29;20214;-65
2024/01/12 06:00:04;;;;;;;18.17;11.43;;;;;;;-2.31;78.58;96797.84;4873857;29;20728;-63
2024/01/12 06:02:31;;;;;;;23.30;12.40;;;;;;;-1.94;78.04;96819.81;4874338;29;20653;-62
2024/01/12 06:04:59;;;;;;;15.20;8.80;;;;;;;-1.81;76.91;96824.00;4873004;29;20198;-64
2024/01/12 06:07:26;;;;;;;17.23;11.07;;;;;;;-1.79;77.04;96823.16;4874332;29;20261;-64
2024/01/12 06:09:53;;;;;;;16.33;10.57;;;;;;;-1.65;75.65;96834.13;4874438;29;20226;-64
2024/01/12 06:12:20;;;;;;;16.73;11.07;;;;;;;-1.32;75.34;96838.28;4876267;29;20207;-64
2024/01/12 06:14:48;;;;;;;27.60;13.83;;;;;;;-1.22;75.29;96836.56;4892927;29;20775;-63
2024/01/12 06:17:15;;;;;;;26.87;15.70;;;;;;;-1.18;74.87;96851.81;4891957;29;20212;-63
2024/01/12 06:19:42;;;;;;;35.80;16.10;;;;;;;-1.28;75.11;96854.38;4892779;29;20314;-63
2024/01/12 06:22:10;;;;;;;25.87;13.33;;;;;;;-1.48;75.36;96863.75;4892195;29;20257;-63
2024/01/12 06:24:37;;;;;;;26.73;13.37;;;;;;;-1.33;74.87;96867.06;4892278;29;20250;-64
2024/01/12 06:27:04;;;;;;;26.03;13.30;;;;;;;-1.44;74.74;96878.13;4892406;29;20297;-63
2024/01/12 06:29:32;;;;;;;29.90;15.73;;;;;;;-1.45;75.37;96854.41;4891669;29;20219;-63
2024/01/12 06:32:00;;;;;;;26.57;15.13;;;;;;;-1.27;73.61;96876.38;4891045;29;20308;-65
2024/01/12 06:34:27;;;;;;;31.93;17.03;;;;;;;-1.29;75.17;96868.75;4891677;29;20201;-64
2024/01/12 06:36:56;;;;;;;34.27;17.00;;;;;;;-1.43;74.61;96816.31;4892690;29;20202;-64
2024/01/12 06:39:23;;;;;;;47.33;22.77;;;;;;;-0.98;74.30;96870.34;4892041;29;20245;-63
2024/01/12 06:41:52;;;;;;;45.17;22.67;;;;;;;-0.98;73.81;96864.41;4891945;29;20666;-64
2024/01/12 06:44:19;;;;;;;40.77;25.53;;;;;;;-1.12;73.77;96863.63;4891779;29;20577;-65
2024/01/12 06:46:49;;;;;;;35.00;20.37;;;;;;;-1.01;72.69;96866.97;4891665;29;20670;-65
2024/01/12 06:49:16;;;;;;;24.77;13.97;;;;;;;-1.17;69.88;96855.16;4892160;29;20214;-65
2024/01/12 06:51:43;;;;;;;26.20;13.70;;;;;;;-1.15;71.75;96859.41;4890955;29;20236;-65
2024/01/12 06:54:10;;;;;;;21.87;13.80;;;;;;;-0.98;71.18;96861.88;4892025;29;20229;-66
2024/01/12 06:56:38;;;;;;;23.50;13.97;;;;;;;-0.85;71.15;96854.22;4891435;29;20196;-65
2024/01/12 06:59:05;;;;;;;31.53;13.63;;;;;;;-0.66;69.07;96852.41;4890032;29;20240;-66
2024/01/12 07:01:33;;;;;;;21.10;11.73;;;;;;;-0.58;67.26;96863.41;4891534;29;20239;-65
2024/01/12 07:04:00;;;;;;;14.27;8.40;;;;;;;-0.44;61.10;96851.44;4891003;29;20203;-65
2024/01/12 07:06:27;;;;;;;13.93;8.40;;;;;;;-0.19;64.01;96873.31;4891322;29;20204;-65
2024/01/12 07:08:54;;;;;;;14.93;7.90;;;;;;;0.32;55.59;96876.31;4890883;29;20291;-64
2024/01/12 07:11:23;;;;;;;16.63;7.53;;;;;;;0.25;56.93;96878.06;4891593;29;20302;-64
2024/01/12 07:13:50;;;;;;;35.73;17.80;;;;;;;0.00;65.12;96876.59;4890821;29;20302;-66
2024/01/12 07:16:17;;;;;;;34.67;18.63;;;;;;;-0.02;66.46;96868.94;4890850;29;20689;-64
2024/01/12 07:18:44;;;;;;;36.47;18.57;;;;;;;-0.26;68.78;96878.44;4890491;29;20238;-64
2024/01/12 07:21:12;;;;;;;24.50;12.90;;;;;;;-0.42;62.24;96881.94;4890315;29;20222;-63
2024/01/12 07:23:39;;;;;;;18.47;10.53;;;;;;;-0.24;61.73;96877.59;4889534;29;20227;-64
2024/01/12 07:26:07;;;;;;;18.60;10.53;;;;;;;-0.10;61.66;96868.16;4891028;29;20303;-65
2024/01/12 07:28:34;;;;;;;17.20;10.23;;;;;;;0.28;58.63;96889.94;4891293;29;20286;-65
2024/01/12 07:31:01;;;;;;;10.23;6.00;;;;;;;0.51;52.23;96888.88;4890194;29;20210;-66
2024/01/12 07:33:28;;;;;;;23.43;13.40;;;;;;;0.60;58.00;96895.56;4890839;29;20213;-64
2024/01/12 07:35:56;;;;;;;25.90;13.60;;;;;;;0.75;60.47;96908.16;4890668;29;20255;-65
2024/01/12 07:38:24;;;;;;;23.43;12.57;;;;;;;0.57;60.08;96905.81;4890398;29;20290;-65
2024/01/12 07:40:51;;;;;;;23.97;12.40;;;;;;;0.73;61.96;96908.19;4889248;29;20204;-65
2024/01/12 07:43:18;;;;;;;20.17;10.97;;;;;;;0.44;63.29;96914.41;4888895;29;20226;-65
2024/01/12 07:45:47;;;;;;;19.67;10.07;;;;;;;0.31;62.36;96898.38;4891016;29;20187;-66
2024/01/12 07:48:14;;;;;;;17.83;9.67;;;;;;;0.36;62.83;96931.44;4890504;29;20307;-65
2024/01/12 07:50:41;;;;;;;14.47;8.70;;;;;;;0.04;63.86;96908.78;4890555;29;20312;-65
2024/01/12 07:53:08;;;;;;;18.80;10.23;;;;;;;0.25;64.93;96933.25;4890874;29;20199;-64
2024/01/12 07:55:35;;;;;;;17.30;9.63;;;;;;;0.29;64.54;96937.47;4890449;29;20204;-65
2024/01/12 07:58:02;;;;;;;21.73;11.90;;;;;;;0.24;61.96;96936.63;4890735;29;20346;-62
2024/01/12 08:00:30;;;;;;;21.30;10.97;;;;;;;0.31;62.81;96936.56;4890058;29;20246;-64
2024/01/12 08:02:57;;;;;;;19.40;10.53;;;;;;;0.18;62.49;96951.97;4889186;29;20211;-65
2024/01/12 08:05:24;;;;;;;23.27;11.93;;;;;;;0.40;63.47;96963.66;4889476;29;20200;-65
2024/01/12 08:07:56;;;;;;;17.40;10.43;;;;;;;0.58;63.33;96945.69;4890443;29;20719;-65
2024/01/12 08:10:23;;;;;;;16.33;9.23;;;;;;;0.65;61.64;96966.03;4889907;29;20240;-65
2024/01/12 08:12:51;;;;;;;17.17;11.03;;;;;;;0.31;61.05;96968.84;4888242;29;20259;-65
2024/01/12 08:15:18;;;;;;;18.10;10.77;;;;;;;0.43;62.61;96976.41;4888888;29;20247;-64
2024/01/12 08:17:45;;;;;;;22.37;12.23;;;;;;;-0.15;61.45;96887.72;4889323;29;20298;-65
2024/01/12 08:20:13;;;;;;;13.53;9.83;;;;;;;0.61;60.01;96989.84;4889725;29;20234;-64
2024/01/12 08:22:40;;;;;;;13.53;8.10;;;;;;;0.34;61.65;96968.81;4889518;29;20206;-64
2024/01/12 08:25:07;;;;;;;12.27;7.27;;;;;;;0.40;60.12;96976.41;4889932;29;20218;-65
2024/01/12 08:27:34;;;;;;;11.50;7.07;;;;;;;0.62;59.60;96980.47;4889545;29;20692;-65
2024/01/12 08:30:01;;;;;;;13.93;8.30;;;;;;;0.87;59.72;96963.28;4889804;29;20226;-65
2024/01/12 08:32:31;;;;;;;14.53;7.57;;;;;;;0.71;61.20;96996.53;4890141;29;20234;-65
2024/01/12 08:34:58;;;;;;;13.33;8.47;;;;;;;0.88;58.41;96968.38;4889889;29;20618;-68
2024/01/12 08:37:25;;;;;;;15.07;8.93;;;;;;;1.12;59.10;97002.97;4889793;29;20207;-63
2024/01/12 08:39:53;;;;;;;16.73;9.20;;;;;;;1.11;60.79;96996.19;4889345;29;20238;-64
2024/01/12 08:42:20;;;;;;;18.77;9.87;;;;;;;1.32;61.38;97009.56;4889843;29;20694;-64
2024/01/12 08:45:27;;;;;;;14.63;8.97;;;;;;;1.02;61.27;97017.50;4889160;29;20597;-63
2024/01/12 08:48:48;;;;;;;16.67;9.43;;;;;;;1.04;62.88;97010.69;4888754;29;20234;-66
2024/01/12 08:52:10;;;;;;;12.87;7.63;;;;;;;1.02;62.84;97003.91;4889241;29;20196;-64
2024/01/12 08:55:30;;;;;;;25.37;9.23;;;;;;;1.01;65.02;97009.88;4889599;29;20350;-64
2024/01/12 08:58:11;;;;;;;17.77;11.13;;;;;;;0.80;65.28;97004.09;4887127;29;20575;-66
2024/01/12 09:00:38;;;;;;;19.47;11.60;;;;;;;1.00;65.99;97003.09;4889609;29;20227;-64
2024/01/12 09:03:05;;;;;;;15.23;8.60;;;;;;;0.80;64.46;97021.94;4889076;29;20203;-63
2024/01/12 09:05:46;;;;;;;14.97;8.60;;;;;;;0.96;62.38;96951.28;4858014;29;20306;-64
2024/01/12 09:08:28;;;;;;;14.63;9.07;;;;;;;1.43;61.25;97019.66;4887925;29;20195;-63
2024/01/12 09:11:11;;;;;;;18.77;9.77;;;;;;;1.37;61.42;97010.38;4889361;29;20195;-66
2024/01/12 09:13:52;;;;;;;18.23;9.10;;;;;;;1.77;59.50;97013.31;4889147;29;20199;-63
2024/01/12 09:16:33;;;;;;;19.10;10.27;;;;;;;1.80;58.98;97002.22;4873854;29;20234;-65
2024/01/12 09:19:14;;;;;;;8.93;5.50;;;;;;;1.34;58.97;97019.78;4888943;29;20235;-64
2024/01/12 09:21:54;;;;;;;13.17;7.53;;;;;;;1.17;59.99;96999.53;4889299;29;20195;-65
2024/01/12 09:24:35;;;;;;;12.90;7.13;;;;;;;1.49;58.99;97015.34;4887435;29;20250;-65
2024/01/12 09:27:16;;;;;;;13.50;6.67;;;;;;;1.53;60.12;96996.56;4890413;29;20295;-64
2024/01/12 09:29:57;;;;;;;13.40;7.83;;;;;;;1.70;59.47;97009.16;4891213;29;20191;-65
2024/01/12 09:32:38;;;;;;;16.17;9.03;;;;;;;1.86;59.34;97025.97;4892683;29;20240;-65
2024/01/12 09:35:21;;;;;;;22.60;12.10;;;;;;;1.81;59.59;97035.41;4892204;29;20591;-64
2024/01/12 09:38:02;;;;;;;16.10;7.73;;;;;;;1.23;61.16;97032.63;4892791;29;20206;-64
2024/01/12 09:40:43;;;;;;;18.50;11.27;;;;;;;1.35;61.93;97022.28;4891228;29;20364;-63
2024/01/12 09:43:14;;;;;;;27.27;14.33;;;;;;;1.77;60.63;97031.19;4892906;29;20670;-65
2024/01/12 09:45:45;;;;;;;18.77;10.90;;;;;;;1.85;59.36;97023.44;4892461;29;20214;-63
2024/01/12 09:48:13;;;;;;;16.47;9.03;;;;;;;1.51;60.27;97023.81;4890785;29;20227;-65
2024/01/12 09:50:42;;;;;;;25.97;13.17;;;;;;;1.59;60.82;97014.38;4892364;29;20206;-63
2024/01/12 09:53:50;;;;;;;21.67;10.97;;;;;;;1.95;59.38;97030.13;4891763;29;20206;-66
2024/01/12 09:57:10;;;;;;;19.33;11.20;;;;;;;2.06;60.44;97029.09;4891938;29;20194;-65
2024/01/12 09:59:48;;;;;;;16.57;8.53;;;;;;;2.12;59.37;97029.03;4889066;29;20709;-65
2024/01/12 10:02:15;;;;;;;14.60;8.70;;;;;;;1.98;60.49;97022.44;4890395;29;20310;-63
2024/01/12 10:04:43;;;;;;;24.87;12.40;;;;;;;2.07;60.87;97020.59;4891698;29;20230;-67
2024/01/12 10:07:10;;;;;;;18.40;10.03;;;;;;;2.36;60.04;97013.38;4890287;29;20294;-66
2024/01/12 10:09:37;;;;;;;15.33;8.43;;;;;;;2.15;60.03;96987.28;4891677;29;20255;-64
2024/01/12 10:12:07;;;;;;;17.43;9.23;;;;;;;2.45;59.69;97030.28;4892257;29;20199;-65
2024/01/12 10:14:34;;;;;;;22.23;10.63;;;;;;;2.46;59.93;97031.97;4890633;29;20191;-66
2024/01/12 10:17:01;;;;;;;11.80;7.50;;;;;;;2.23;58.13;97009.28;4891481;29;20243;-65
2024/01/12 10:19:29;;;;;;;13.47;8.13;;;;;;;2.70;56.93;97036.72;4890868;29;20269;-64
2024/01/12 10:21:58;;;;;;;19.70;9.37;;;;;;;2.73;56.66;97039.25;4891750;29;20211;-65
2024/01/12 10:24:25;;;;;;;13.30;6.93;;;;;;;2.92;53.71;97037.25;4891686;29;20286;-66
2024/01/12 10:26:52;;;;;;;14.53;7.37;;;;;;;2.95;53.55;97038.03;4891947;29;20298;-66
2024/01/12 10:29:20;;;;;;;14.60;8.03;;;;;;;3.06;52.17;97038.69;4891909;29;20206;-65
2024/01/12 10:32:27;;;;;;;13.40;6.87;;;;;;;3.17;50.29;97052.13;4891801;29;20231;-64
2024/01/12 10:35:49;;;;;;;13.87;6.43;;;;;;;3.34;51.15;97043.34;4889923;29;20302;-65
2024/01/12 10:39:09;;;;;;;10.77;5.93;;;;;;;3.15;51.13;97042.81;4890946;29;20365;-64
2024/01/12 10:42:30;;;;;;;9.10;5.03;;;;;;;3.13;50.50;97047.94;4891118;29;20196;-63
2024/01/12 10:45:51;;;;;;;14.27;6.60;;;;;;;3.29;50.82;97049.41;4890414;29;20306;-64
2024/01/12 10:49:12;;;;;;;10.83;7.10;;;;;;;2.85;51.54;97054.38;4891299;29;20269;-63
2024/01/12 10:52:51;;;;;;;9.10;6.67;;;;;;;3.09;49.28;97050.59;4891752;29;20194;-64
2024/01/12 10:56:14;;;;;;;10.70;5.40;;;;;;;3.26;48.66;97052.00;4891040;29;20219;-63
2024/01/12 10:59:35;;;;;;;10.83;5.80;;;;;;;3.16;49.50;97068.38;4890790;29;20203;-64
2024/01/12 11:02:56;;;;;;;13.10;6.73;;;;;;;3.20;49.13;97067.47;4890726;29;20672;-64
2024/01/12 11:06:17;;;;;;;11.97;6.20;;;;;;;2.96;48.61;97072.97;4891059;29;20278;-64
2024/01/12 11:09:38;;;;;;;8.67;5.23;;;;;;;2.62;47.28;97060.72;4889135;29;20190;-64
2024/01/12 11:12:59;;;;;;;12.37;6.30;;;;;;;3.03;47.15;97054.09;4890299;29;20195;-64
2024/01/12 11:16:21;;;;;;;10.00;6.27;;;;;;;3.31;47.25;97062.16;4890437;29;20316;-65
2024/01/12 11:19:41;;;;;;;12.57;6.73;;;;;;;3.42;47.36;97021.84;4882089;29;20235;-65
2024/01/12 11:23:02;;;;;;;15.17;7.47;;;;;;;4.01;45.21;97079.63;4876868;29;20200;-64
2024/01/12 11:26:23;;;;;;;16.83;8.53;;;;;;;3.98;45.57;97057.47;4872135;29;20202;-63
2024/01/12 11:29:49;;;;;;;19.70;6.87;;;;;;;4.41;44.36;97077.94;4871618;29;20206;-65
2024/01/12 11:33:20;;;;;;;13.20;6.23;;;;;;;4.43;45.58;97076.19;4869892;29;20202;-66
2024/01/12 11:36:40;;;;;;;15.47;6.77;;;;;;;3.94;44.70;97076.34;4871776;29;20205;-62
2024/01/12 11:40:01;;;;;;;12.60;6.87;;;;;;;4.23;43.86;97073.19;4872039;29;20288;-64
2024/01/12 11:43:23;;;;;;;15.77;7.27;;;;;;;4.21;44.54;97076.66;4871627;29;20197;-67
2024/01/12 11:46:44;;;;;;;15.23;6.27;;;;;;;4.32;44.56;97080.72;4871480;29;20205;-67
2024/01/12 11:50:04;;;;;;;15.80;8.13;;;;;;;4.46;44.09;97081.25;4871269;29;20643;-67
2024/01/12 11:53:34;;;;;;;19.43;8.10;;;;;;;4.50;44.89;97076.91;4871539;29;20281;-65
2024/01/12 11:56:56;;;;;;;11.77;6.80;;;;;;;4.55;43.75;97060.56;4871695;29;20255;-65